sensor_id;sensor_type;location;lat;lon;timestamp;P1;durP1;ratioP1;P2;durP2;ratioP2
28003;SDS011;15330;51.234;6.754;2022-10-31T00:02:02;19.38;;;10.43;;
28003;SDS011;15330;51.234;6.754;2022-10-31T00:04:28;20.20;;;10.27;;
28003;SDS011;15330;51.234;6.754;2022-10-31T00:06:53;26.88;;;11.35;;
28003;SDS011;15330;51.234;6.754;2022-10-31T00:09:18;21.55;;;10.18;;
28003;SDS011;15330;51.234;6.754;2022-10-31T00:11:44;25.38;;;10.88;;
28003;SDS011;15330;51.234;6.754;2022-10-31T00:14:09;28.00;;;11.48;;
28003;SDS011;15330;51.234;6.754;2022-10-31T00:16:34;21.77;;;10.20;;
28003;SDS011;15330;51.234;6.754;2022-10-31T00:19:02;22.55;;;10.70;;
28003;SDS011;15330;51.234;6.754;2022-10-31T00:21:29;22.80;;;10.90;;
28003;SDS011;15330;51.234;6.754;2022-10-31T00:23:57;23.00;;;11.10;;
28003;SDS011;15330;51.234;6.754;2022-10-31T00:26:23;23.08;;;10.52;;
28003;SDS011;15330;51.234;6.754;2022-10-31T00:28:49;22.33;;;10.90;;
28003;SDS011;15330;51.234;6.754;2022-10-31T00:31:16;23.55;;;10.23;;
28003;SDS011;15330;51.234;6.754;2022-10-31T00:33:41;18.65;;;10.70;;
28003;SDS011;15330;51.234;6.754;2022-10-31T00:36:08;21.63;;;11.15;;
28003;SDS011;15330;51.234;6.754;2022-10-31T00:38:36;19.30;;;11.00;;
28003;SDS011;15330;51.234;6.754;2022-10-31T00:41:02;21.88;;;10.60;;
28003;SDS011;15330;51.234;6.754;2022-10-31T00:43:27;23.40;;;10.27;;
28003;SDS011;15330;51.234;6.754;2022-10-31T00:45:52;23.60;;;10.48;;
28003;SDS011;15330;51.234;6.754;2022-10-31T00:48:18;17.75;;;10.23;;
28003;SDS011;15330;51.234;6.754;2022-10-31T00:50:43;19.58;;;10.25;;
28003;SDS011;15330;51.234;6.754;2022-10-31T00:53:09;19.27;;;10.65;;
28003;SDS011;15330;51.234;6.754;2022-10-31T00:55:34;20.48;;;12.30;;
28003;SDS011;15330;51.234;6.754;2022-10-31T00:57:59;18.85;;;10.88;;
28003;SDS011;15330;51.234;6.754;2022-10-31T01:00:25;27.25;;;11.90;;
28003;SDS011;15330;51.234;6.754;2022-10-31T01:02:50;26.40;;;12.18;;
28003;SDS011;15330;51.234;6.754;2022-10-31T01:05:16;23.70;;;12.10;;
28003;SDS011;15330;51.234;6.754;2022-10-31T01:07:42;26.13;;;12.68;;
28003;SDS011;15330;51.234;6.754;2022-10-31T01:10:08;23.38;;;13.43;;
28003;SDS011;15330;51.234;6.754;2022-10-31T01:12:42;27.30;;;13.07;;
28003;SDS011;15330;51.234;6.754;2022-10-31T01:15:09;24.02;;;12.20;;
28003;SDS011;15330;51.234;6.754;2022-10-31T01:17:36;23.50;;;11.98;;
28003;SDS011;15330;51.234;6.754;2022-10-31T01:20:02;22.83;;;12.88;;
28003;SDS011;15330;51.234;6.754;2022-10-31T01:22:28;23.85;;;12.40;;
28003;SDS011;15330;51.234;6.754;2022-10-31T01:24:54;23.40;;;12.95;;
28003;SDS011;15330;51.234;6.754;2022-10-31T01:27:19;26.33;;;13.27;;
28003;SDS011;15330;51.234;6.754;2022-10-31T01:29:44;24.02;;;13.52;;
28003;SDS011;15330;51.234;6.754;2022-10-31T01:32:10;26.23;;;13.48;;
28003;SDS011;15330;51.234;6.754;2022-10-31T01:34:35;24.83;;;13.45;;
28003;SDS011;15330;51.234;6.754;2022-10-31T01:37:01;28.92;;;12.73;;
28003;SDS011;15330;51.234;6.754;2022-10-31T01:39:26;23.50;;;12.50;;
28003;SDS011;15330;51.234;6.754;2022-10-31T01:41:52;27.77;;;12.65;;
28003;SDS011;15330;51.234;6.754;2022-10-31T01:47:17;29.63;;;12.53;;
28003;SDS011;15330;51.234;6.754;2022-10-31T01:49:46;28.58;;;12.50;;
28003;SDS011;15330;51.234;6.754;2022-10-31T01:55:16;26.00;;;13.32;;
28003;SDS011;15330;51.234;6.754;2022-10-31T01:57:46;33.80;;;12.90;;
28003;SDS011;15330;51.234;6.754;2022-10-31T02:00:15;27.17;;;12.80;;
28003;SDS011;15330;51.234;6.754;2022-10-31T02:02:41;24.35;;;12.27;;
28003;SDS011;15330;51.234;6.754;2022-10-31T02:05:11;23.83;;;11.57;;
28003;SDS011;15330;51.234;6.754;2022-10-31T02:10:15;19.58;;;11.48;;
28003;SDS011;15330;51.234;6.754;2022-10-31T02:12:41;23.05;;;10.77;;
28003;SDS011;15330;51.234;6.754;2022-10-31T02:15:07;29.48;;;12.05;;
28003;SDS011;15330;51.234;6.754;2022-10-31T02:17:34;28.33;;;11.32;;
28003;SDS011;15330;51.234;6.754;2022-10-31T02:20:02;20.85;;;11.48;;
28003;SDS011;15330;51.234;6.754;2022-10-31T02:22:43;25.75;;;11.00;;
28003;SDS011;15330;51.234;6.754;2022-10-31T02:33:40;25.20;;;10.98;;
28003;SDS011;15330;51.234;6.754;2022-10-31T02:39:11;22.65;;;10.90;;
28003;SDS011;15330;51.234;6.754;2022-10-31T02:41:48;24.65;;;11.70;;
28003;SDS011;15330;51.234;6.754;2022-10-31T02:44:29;24.00;;;12.02;;
28003;SDS011;15330;51.234;6.754;2022-10-31T02:47:01;25.67;;;10.35;;
28003;SDS011;15330;51.234;6.754;2022-10-31T02:49:32;23.63;;;10.93;;
28003;SDS011;15330;51.234;6.754;2022-10-31T02:52:22;18.08;;;10.65;;
28003;SDS011;15330;51.234;6.754;2022-10-31T02:54:50;22.67;;;10.23;;
28003;SDS011;15330;51.234;6.754;2022-10-31T02:57:17;25.73;;;11.73;;
28003;SDS011;15330;51.234;6.754;2022-10-31T02:59:47;28.48;;;11.43;;
28003;SDS011;15330;51.234;6.754;2022-10-31T03:05:58;18.02;;;10.98;;
28003;SDS011;15330;51.234;6.754;2022-10-31T03:08:24;24.27;;;10.85;;
28003;SDS011;15330;51.234;6.754;2022-10-31T03:11:02;21.00;;;11.38;;
28003;SDS011;15330;51.234;6.754;2022-10-31T03:16:15;23.10;;;11.45;;
28003;SDS011;15330;51.234;6.754;2022-10-31T03:18:49;19.38;;;10.00;;
28003;SDS011;15330;51.234;6.754;2022-10-31T03:21:41;21.48;;;10.63;;
28003;SDS011;15330;51.234;6.754;2022-10-31T03:24:08;19.20;;;11.20;;
28003;SDS011;15330;51.234;6.754;2022-10-31T03:26:35;23.33;;;11.30;;
28003;SDS011;15330;51.234;6.754;2022-10-31T03:29:05;29.27;;;11.05;;
28003;SDS011;15330;51.234;6.754;2022-10-31T03:31:35;20.88;;;10.68;;
28003;SDS011;15330;51.234;6.754;2022-10-31T03:34:05;24.65;;;11.35;;
28003;SDS011;15330;51.234;6.754;2022-10-31T03:36:33;21.50;;;11.45;;
28003;SDS011;15330;51.234;6.754;2022-10-31T03:39:01;26.75;;;11.55;;
28003;SDS011;15330;51.234;6.754;2022-10-31T03:41:32;22.88;;;11.20;;
28003;SDS011;15330;51.234;6.754;2022-10-31T03:44:04;20.45;;;11.43;;
28003;SDS011;15330;51.234;6.754;2022-10-31T03:46:35;28.73;;;12.52;;
28003;SDS011;15330;51.234;6.754;2022-10-31T03:49:01;27.00;;;12.95;;
28003;SDS011;15330;51.234;6.754;2022-10-31T03:54:10;20.98;;;10.55;;
28003;SDS011;15330;51.234;6.754;2022-10-31T03:59:26;21.42;;;11.68;;
28003;SDS011;15330;51.234;6.754;2022-10-31T04:01:59;25.05;;;11.60;;
28003;SDS011;15330;51.234;6.754;2022-10-31T04:04:32;22.77;;;11.15;;
28003;SDS011;15330;51.234;6.754;2022-10-31T04:06:59;21.83;;;10.88;;
28003;SDS011;15330;51.234;6.754;2022-10-31T04:09:27;25.23;;;10.77;;
28003;SDS011;15330;51.234;6.754;2022-10-31T04:11:56;24.95;;;11.73;;
28003;SDS011;15330;51.234;6.754;2022-10-31T04:14:26;19.73;;;10.77;;
28003;SDS011;15330;51.234;6.754;2022-10-31T04:16:55;25.25;;;12.23;;
28003;SDS011;15330;51.234;6.754;2022-10-31T04:19:21;22.35;;;11.77;;
28003;SDS011;15330;51.234;6.754;2022-10-31T04:21:46;22.83;;;10.88;;
28003;SDS011;15330;51.234;6.754;2022-10-31T04:24:12;28.98;;;11.48;;
28003;SDS011;15330;51.234;6.754;2022-10-31T04:26:37;26.38;;;11.38;;
28003;SDS011;15330;51.234;6.754;2022-10-31T04:29:02;22.70;;;10.93;;
28003;SDS011;15330;51.234;6.754;2022-10-31T04:31:28;28.17;;;10.88;;
28003;SDS011;15330;51.234;6.754;2022-10-31T04:33:53;21.88;;;11.70;;
28003;SDS011;15330;51.234;6.754;2022-10-31T04:36:19;20.52;;;10.68;;
28003;SDS011;15330;51.234;6.754;2022-10-31T04:38:44;19.55;;;11.43;;
28003;SDS011;15330;51.234;6.754;2022-10-31T04:41:09;25.45;;;11.30;;
28003;SDS011;15330;51.234;6.754;2022-10-31T04:43:35;19.85;;;11.40;;
28003;SDS011;15330;51.234;6.754;2022-10-31T04:46:00;22.30;;;10.95;;
28003;SDS011;15330;51.234;6.754;2022-10-31T04:48:26;21.05;;;11.52;;
28003;SDS011;15330;51.234;6.754;2022-10-31T04:50:51;20.58;;;10.88;;
28003;SDS011;15330;51.234;6.754;2022-10-31T04:53:16;20.30;;;11.30;;
28003;SDS011;15330;51.234;6.754;2022-10-31T04:55:42;20.42;;;11.20;;
28003;SDS011;15330;51.234;6.754;2022-10-31T04:58:07;24.17;;;10.80;;
28003;SDS011;15330;51.234;6.754;2022-10-31T05:00:32;29.60;;;12.25;;
28003;SDS011;15330;51.234;6.754;2022-10-31T05:02:58;22.05;;;10.82;;
28003;SDS011;15330;51.234;6.754;2022-10-31T05:05:24;26.48;;;11.65;;
28003;SDS011;15330;51.234;6.754;2022-10-31T05:07:52;30.63;;;11.82;;
28003;SDS011;15330;51.234;6.754;2022-10-31T05:10:18;19.25;;;10.55;;
28003;SDS011;15330;51.234;6.754;2022-10-31T05:12:49;19.88;;;10.73;;
28003;SDS011;15330;51.234;6.754;2022-10-31T05:15:19;20.38;;;10.00;;
28003;SDS011;15330;51.234;6.754;2022-10-31T05:17:45;29.17;;;11.77;;
28003;SDS011;15330;51.234;6.754;2022-10-31T05:20:11;30.25;;;11.15;;
28003;SDS011;15330;51.234;6.754;2022-10-31T05:22:41;23.98;;;11.52;;
28003;SDS011;15330;51.234;6.754;2022-10-31T05:25:08;23.88;;;11.65;;
28003;SDS011;15330;51.234;6.754;2022-10-31T05:27:34;20.67;;;11.27;;
28003;SDS011;15330;51.234;6.754;2022-10-31T05:29:59;23.05;;;10.95;;
28003;SDS011;15330;51.234;6.754;2022-10-31T05:32:24;25.65;;;11.80;;
28003;SDS011;15330;51.234;6.754;2022-10-31T05:34:50;23.23;;;10.95;;
28003;SDS011;15330;51.234;6.754;2022-10-31T05:37:15;24.80;;;12.40;;
28003;SDS011;15330;51.234;6.754;2022-10-31T05:39:40;19.98;;;11.38;;
28003;SDS011;15330;51.234;6.754;2022-10-31T05:42:06;23.23;;;11.50;;
28003;SDS011;15330;51.234;6.754;2022-10-31T05:44:31;19.80;;;12.15;;
28003;SDS011;15330;51.234;6.754;2022-10-31T05:46:56;25.10;;;11.45;;
28003;SDS011;15330;51.234;6.754;2022-10-31T05:49:22;19.40;;;10.95;;
28003;SDS011;15330;51.234;6.754;2022-10-31T05:51:47;26.45;;;11.35;;
28003;SDS011;15330;51.234;6.754;2022-10-31T05:54:13;25.85;;;10.77;;
28003;SDS011;15330;51.234;6.754;2022-10-31T05:56:38;25.73;;;11.25;;
28003;SDS011;15330;51.234;6.754;2022-10-31T05:59:03;23.10;;;10.68;;
28003;SDS011;15330;51.234;6.754;2022-10-31T06:01:29;20.60;;;11.80;;
28003;SDS011;15330;51.234;6.754;2022-10-31T06:03:54;24.63;;;12.27;;
28003;SDS011;15330;51.234;6.754;2022-10-31T06:06:19;19.40;;;11.50;;
28003;SDS011;15330;51.234;6.754;2022-10-31T06:08:45;22.25;;;11.45;;
28003;SDS011;15330;51.234;6.754;2022-10-31T06:11:10;26.70;;;12.00;;
28003;SDS011;15330;51.234;6.754;2022-10-31T06:13:35;23.25;;;11.70;;
28003;SDS011;15330;51.234;6.754;2022-10-31T06:16:01;29.65;;;12.25;;
28003;SDS011;15330;51.234;6.754;2022-10-31T06:18:26;20.50;;;11.43;;
28003;SDS011;15330;51.234;6.754;2022-10-31T06:20:51;20.98;;;11.63;;
28003;SDS011;15330;51.234;6.754;2022-10-31T06:23:17;25.85;;;12.10;;
28003;SDS011;15330;51.234;6.754;2022-10-31T06:25:42;22.15;;;12.02;;
28003;SDS011;15330;51.234;6.754;2022-10-31T06:28:07;26.35;;;11.57;;
28003;SDS011;15330;51.234;6.754;2022-10-31T06:30:33;31.77;;;12.65;;
28003;SDS011;15330;51.234;6.754;2022-10-31T06:33:04;26.40;;;13.10;;
28003;SDS011;15330;51.234;6.754;2022-10-31T06:35:30;28.20;;;13.68;;
28003;SDS011;15330;51.234;6.754;2022-10-31T06:37:56;25.55;;;12.93;;
28003;SDS011;15330;51.234;6.754;2022-10-31T06:40:22;25.45;;;12.70;;
28003;SDS011;15330;51.234;6.754;2022-10-31T06:42:47;40.83;;;14.25;;
28003;SDS011;15330;51.234;6.754;2022-10-31T06:45:20;35.03;;;18.98;;
28003;SDS011;15330;51.234;6.754;2022-10-31T06:47:50;30.25;;;14.70;;
28003;SDS011;15330;51.234;6.754;2022-10-31T06:50:16;33.00;;;16.55;;
28003;SDS011;15330;51.234;6.754;2022-10-31T06:52:42;24.05;;;13.40;;
28003;SDS011;15330;51.234;6.754;2022-10-31T06:55:07;28.88;;;16.17;;
28003;SDS011;15330;51.234;6.754;2022-10-31T06:57:32;24.35;;;13.85;;
28003;SDS011;15330;51.234;6.754;2022-10-31T06:59:58;43.83;;;15.63;;
28003;SDS011;15330;51.234;6.754;2022-10-31T07:02:23;30.45;;;14.93;;
28003;SDS011;15330;51.234;6.754;2022-10-31T07:04:48;28.05;;;14.65;;
28003;SDS011;15330;51.234;6.754;2022-10-31T07:07:14;26.77;;;15.00;;
28003;SDS011;15330;51.234;6.754;2022-10-31T07:09:39;29.08;;;14.15;;
28003;SDS011;15330;51.234;6.754;2022-10-31T07:12:05;30.48;;;15.15;;
28003;SDS011;15330;51.234;6.754;2022-10-31T07:14:31;28.08;;;14.18;;
28003;SDS011;15330;51.234;6.754;2022-10-31T07:16:56;30.55;;;14.18;;
28003;SDS011;15330;51.234;6.754;2022-10-31T07:19:21;24.23;;;14.32;;
28003;SDS011;15330;51.234;6.754;2022-10-31T07:21:47;41.60;;;15.00;;
28003;SDS011;15330;51.234;6.754;2022-10-31T07:24:12;27.80;;;13.23;;
28003;SDS011;15330;51.234;6.754;2022-10-31T07:26:37;24.58;;;13.77;;
28003;SDS011;15330;51.234;6.754;2022-10-31T07:29:03;25.10;;;13.18;;
28003;SDS011;15330;51.234;6.754;2022-10-31T07:31:28;27.77;;;14.93;;
28003;SDS011;15330;51.234;6.754;2022-10-31T07:33:54;33.78;;;14.35;;
28003;SDS011;15330;51.234;6.754;2022-10-31T07:36:19;32.00;;;15.55;;
28003;SDS011;15330;51.234;6.754;2022-10-31T07:38:44;33.45;;;15.10;;
28003;SDS011;15330;51.234;6.754;2022-10-31T07:41:10;31.73;;;15.38;;
28003;SDS011;15330;51.234;6.754;2022-10-31T07:43:35;32.03;;;14.90;;
28003;SDS011;15330;51.234;6.754;2022-10-31T07:46:00;29.60;;;14.63;;
28003;SDS011;15330;51.234;6.754;2022-10-31T07:48:26;31.20;;;15.88;;
28003;SDS011;15330;51.234;6.754;2022-10-31T07:50:51;27.42;;;14.60;;
28003;SDS011;15330;51.234;6.754;2022-10-31T07:53:16;36.45;;;14.77;;
28003;SDS011;15330;51.234;6.754;2022-10-31T07:55:42;33.17;;;15.73;;
28003;SDS011;15330;51.234;6.754;2022-10-31T07:58:09;30.23;;;15.23;;
28003;SDS011;15330;51.234;6.754;2022-10-31T08:00:37;29.52;;;15.15;;
28003;SDS011;15330;51.234;6.754;2022-10-31T08:03:07;29.65;;;14.82;;
28003;SDS011;15330;51.234;6.754;2022-10-31T08:05:34;29.77;;;14.43;;
28003;SDS011;15330;51.234;6.754;2022-10-31T08:08:00;30.33;;;14.18;;
28003;SDS011;15330;51.234;6.754;2022-10-31T08:10:26;43.20;;;15.25;;
28003;SDS011;15330;51.234;6.754;2022-10-31T08:12:58;32.45;;;14.27;;
28003;SDS011;15330;51.234;6.754;2022-10-31T08:15:34;23.75;;;13.20;;
28003;SDS011;15330;51.234;6.754;2022-10-31T08:18:02;29.55;;;14.07;;
28003;SDS011;15330;51.234;6.754;2022-10-31T08:20:28;21.95;;;12.30;;
28003;SDS011;15330;51.234;6.754;2022-10-31T08:23:04;24.63;;;11.57;;
28003;SDS011;15330;51.234;6.754;2022-10-31T08:25:31;21.30;;;12.25;;
28003;SDS011;15330;51.234;6.754;2022-10-31T08:27:57;31.23;;;13.38;;
28003;SDS011;15330;51.234;6.754;2022-10-31T08:30:24;30.77;;;13.45;;
28003;SDS011;15330;51.234;6.754;2022-10-31T08:35:25;23.15;;;12.82;;
28003;SDS011;15330;51.234;6.754;2022-10-31T08:37:53;21.65;;;12.80;;
28003;SDS011;15330;51.234;6.754;2022-10-31T08:40:22;26.33;;;12.68;;
28003;SDS011;15330;51.234;6.754;2022-10-31T08:42:55;27.85;;;12.63;;
28003;SDS011;15330;51.234;6.754;2022-10-31T08:45:25;32.33;;;12.18;;
28003;SDS011;15330;51.234;6.754;2022-10-31T08:47:51;28.60;;;12.02;;
28003;SDS011;15330;51.234;6.754;2022-10-31T08:50:16;24.42;;;11.55;;
28003;SDS011;15330;51.234;6.754;2022-10-31T08:52:42;24.17;;;11.93;;
28003;SDS011;15330;51.234;6.754;2022-10-31T08:55:07;20.50;;;11.10;;
28003;SDS011;15330;51.234;6.754;2022-10-31T08:57:33;28.58;;;12.15;;
28003;SDS011;15330;51.234;6.754;2022-10-31T08:59:58;21.83;;;11.90;;
28003;SDS011;15330;51.234;6.754;2022-10-31T09:02:23;17.67;;;11.23;;
28003;SDS011;15330;51.234;6.754;2022-10-31T09:04:49;28.40;;;11.52;;
28003;SDS011;15330;51.234;6.754;2022-10-31T09:07:14;25.45;;;11.43;;
28003;SDS011;15330;51.234;6.754;2022-10-31T09:09:39;32.35;;;13.25;;
28003;SDS011;15330;51.234;6.754;2022-10-31T09:12:05;30.73;;;12.68;;
28003;SDS011;15330;51.234;6.754;2022-10-31T09:14:30;23.63;;;11.70;;
28003;SDS011;15330;51.234;6.754;2022-10-31T09:16:55;23.45;;;12.32;;
28003;SDS011;15330;51.234;6.754;2022-10-31T09:19:21;18.92;;;11.90;;
28003;SDS011;15330;51.234;6.754;2022-10-31T09:21:46;23.38;;;12.50;;
28003;SDS011;15330;51.234;6.754;2022-10-31T09:24:11;21.80;;;11.07;;
28003;SDS011;15330;51.234;6.754;2022-10-31T09:26:37;29.73;;;13.52;;
28003;SDS011;15330;51.234;6.754;2022-10-31T09:29:02;25.40;;;12.57;;
28003;SDS011;15330;51.234;6.754;2022-10-31T09:31:28;26.77;;;12.65;;
28003;SDS011;15330;51.234;6.754;2022-10-31T09:33:53;24.58;;;12.18;;
28003;SDS011;15330;51.234;6.754;2022-10-31T09:36:19;28.83;;;12.95;;
28003;SDS011;15330;51.234;6.754;2022-10-31T09:38:44;35.30;;;12.93;;
28003;SDS011;15330;51.234;6.754;2022-10-31T09:41:17;25.70;;;12.93;;
28003;SDS011;15330;51.234;6.754;2022-10-31T09:44:07;22.60;;;12.98;;
28003;SDS011;15330;51.234;6.754;2022-10-31T09:47:07;25.48;;;14.43;;
28003;SDS011;15330;51.234;6.754;2022-10-31T09:54:35;26.47;;;13.30;;
28003;SDS011;15330;51.234;6.754;2022-10-31T09:57:05;26.30;;;13.73;;
28003;SDS011;15330;51.234;6.754;2022-10-31T09:59:39;29.42;;;13.90;;
28003;SDS011;15330;51.234;6.754;2022-10-31T10:02:10;32.80;;;14.00;;
28003;SDS011;15330;51.234;6.754;2022-10-31T10:10:00;40.08;;;14.98;;
28003;SDS011;15330;51.234;6.754;2022-10-31T10:15:43;27.48;;;13.85;;
28003;SDS011;15330;51.234;6.754;2022-10-31T10:18:47;27.08;;;13.27;;
28003;SDS011;15330;51.234;6.754;2022-10-31T10:21:25;34.45;;;14.32;;
28003;SDS011;15330;51.234;6.754;2022-10-31T10:24:41;26.90;;;13.50;;
28003;SDS011;15330;51.234;6.754;2022-10-31T10:30:18;32.55;;;13.40;;
28003;SDS011;15330;51.234;6.754;2022-10-31T10:32:56;32.00;;;14.00;;
28003;SDS011;15330;51.234;6.754;2022-10-31T10:37:58;25.27;;;13.00;;
28003;SDS011;15330;51.234;6.754;2022-10-31T10:40:28;25.80;;;12.82;;
28003;SDS011;15330;51.234;6.754;2022-10-31T10:51:21;27.67;;;13.90;;
28003;SDS011;15330;51.234;6.754;2022-10-31T10:59:33;27.67;;;11.85;;
28003;SDS011;15330;51.234;6.754;2022-10-31T11:01:59;25.00;;;12.48;;
28003;SDS011;15330;51.234;6.754;2022-10-31T11:04:32;31.77;;;12.10;;
28003;SDS011;15330;51.234;6.754;2022-10-31T11:07:00;32.28;;;12.95;;
28003;SDS011;15330;51.234;6.754;2022-10-31T11:09:34;24.38;;;11.18;;
28003;SDS011;15330;51.234;6.754;2022-10-31T11:12:05;21.98;;;10.95;;
28003;SDS011;15330;51.234;6.754;2022-10-31T11:14:56;22.63;;;11.68;;
28003;SDS011;15330;51.234;6.754;2022-10-31T11:22:38;24.83;;;10.85;;
28003;SDS011;15330;51.234;6.754;2022-10-31T11:28:03;25.55;;;10.45;;
28003;SDS011;15330;51.234;6.754;2022-10-31T11:30:30;19.50;;;10.95;;
28003;SDS011;15330;51.234;6.754;2022-10-31T11:33:11;20.20;;;9.85;;
28003;SDS011;15330;51.234;6.754;2022-10-31T11:35:42;20.08;;;9.70;;
28003;SDS011;15330;51.234;6.754;2022-10-31T11:38:12;20.27;;;10.35;;
28003;SDS011;15330;51.234;6.754;2022-10-31T11:40:52;21.60;;;9.75;;
28003;SDS011;15330;51.234;6.754;2022-10-31T11:43:20;21.58;;;10.52;;
28003;SDS011;15330;51.234;6.754;2022-10-31T11:45:46;25.08;;;10.73;;
28003;SDS011;15330;51.234;6.754;2022-10-31T11:48:22;27.40;;;10.23;;
28003;SDS011;15330;51.234;6.754;2022-10-31T11:50:51;23.35;;;10.68;;
28003;SDS011;15330;51.234;6.754;2022-10-31T11:56:01;17.10;;;10.18;;
28003;SDS011;15330;51.234;6.754;2022-10-31T11:58:30;16.63;;;10.13;;
28003;SDS011;15330;51.234;6.754;2022-10-31T12:00:56;18.15;;;9.15;;
28003;SDS011;15330;51.234;6.754;2022-10-31T12:05:49;20.63;;;10.20;;
28003;SDS011;15330;51.234;6.754;2022-10-31T12:10:56;26.77;;;9.07;;
28003;SDS011;15330;51.234;6.754;2022-10-31T12:13:51;17.42;;;9.18;;
28003;SDS011;15330;51.234;6.754;2022-10-31T12:16:32;16.88;;;8.68;;
28003;SDS011;15330;51.234;6.754;2022-10-31T12:22:13;23.95;;;8.73;;
28003;SDS011;15330;51.234;6.754;2022-10-31T12:25:12;18.33;;;8.32;;
28003;SDS011;15330;51.234;6.754;2022-10-31T12:33:08;19.25;;;6.07;;
28003;SDS011;15330;51.234;6.754;2022-10-31T12:35:51;22.77;;;6.63;;
28003;SDS011;15330;51.234;6.754;2022-10-31T12:47:14;17.00;;;5.80;;
28003;SDS011;15330;51.234;6.754;2022-10-31T12:58:03;18.65;;;6.95;;
28003;SDS011;15330;51.234;6.754;2022-10-31T13:00:35;14.05;;;5.30;;
28003;SDS011;15330;51.234;6.754;2022-10-31T13:05:54;13.90;;;5.95;;
28003;SDS011;15330;51.234;6.754;2022-10-31T13:08:26;17.00;;;5.57;;
28003;SDS011;15330;51.234;6.754;2022-10-31T13:10:59;12.80;;;5.57;;
28003;SDS011;15330;51.234;6.754;2022-10-31T13:13:35;17.10;;;5.43;;
28003;SDS011;15330;51.234;6.754;2022-10-31T13:16:10;19.92;;;6.75;;
28003;SDS011;15330;51.234;6.754;2022-10-31T13:18:42;19.87;;;5.87;;
28003;SDS011;15330;51.234;6.754;2022-10-31T13:21:18;21.25;;;6.45;;
28003;SDS011;15330;51.234;6.754;2022-10-31T13:23:49;19.48;;;6.60;;
28003;SDS011;15330;51.234;6.754;2022-10-31T13:26:23;17.95;;;6.22;;
28003;SDS011;15330;51.234;6.754;2022-10-31T13:29:15;19.77;;;6.75;;
28003;SDS011;15330;51.234;6.754;2022-10-31T13:31:51;9.77;;;6.03;;
28003;SDS011;15330;51.234;6.754;2022-10-31T13:34:23;16.80;;;6.75;;
28003;SDS011;15330;51.234;6.754;2022-10-31T13:37:18;12.13;;;5.78;;
28003;SDS011;15330;51.234;6.754;2022-10-31T13:45:24;16.55;;;5.60;;
28003;SDS011;15330;51.234;6.754;2022-10-31T13:50:41;15.23;;;5.38;;
28003;SDS011;15330;51.234;6.754;2022-10-31T13:53:18;18.23;;;5.10;;
28003;SDS011;15330;51.234;6.754;2022-10-31T13:55:46;16.60;;;5.43;;
28003;SDS011;15330;51.234;6.754;2022-10-31T13:58:27;21.50;;;5.05;;
28003;SDS011;15330;51.234;6.754;2022-10-31T14:00:59;20.27;;;5.00;;
28003;SDS011;15330;51.234;6.754;2022-10-31T14:03:36;21.30;;;5.47;;
28003;SDS011;15330;51.234;6.754;2022-10-31T14:06:04;17.63;;;5.00;;
28003;SDS011;15330;51.234;6.754;2022-10-31T14:08:34;12.38;;;5.53;;
28003;SDS011;15330;51.234;6.754;2022-10-31T14:11:01;17.25;;;5.93;;
28003;SDS011;15330;51.234;6.754;2022-10-31T14:13:35;14.98;;;5.38;;
28003;SDS011;15330;51.234;6.754;2022-10-31T14:16:17;11.85;;;5.57;;
28003;SDS011;15330;51.234;6.754;2022-10-31T14:21:31;14.25;;;4.88;;
28003;SDS011;15330;51.234;6.754;2022-10-31T14:24:12;31.20;;;12.10;;
28003;SDS011;15330;51.234;6.754;2022-10-31T14:26:50;14.77;;;4.93;;
28003;SDS011;15330;51.234;6.754;2022-10-31T14:31:43;11.82;;;5.10;;
28003;SDS011;15330;51.234;6.754;2022-10-31T14:52:57;15.55;;;4.72;;
28003;SDS011;15330;51.234;6.754;2022-10-31T14:55:26;14.50;;;4.93;;
28003;SDS011;15330;51.234;6.754;2022-10-31T14:57:54;12.13;;;5.32;;
28003;SDS011;15330;51.234;6.754;2022-10-31T15:00:22;12.48;;;4.88;;
28003;SDS011;15330;51.234;6.754;2022-10-31T15:07:55;9.20;;;5.10;;
28003;SDS011;15330;51.234;6.754;2022-10-31T15:10:29;12.10;;;5.10;;
28003;SDS011;15330;51.234;6.754;2022-10-31T15:13:08;12.65;;;5.32;;
28003;SDS011;15330;51.234;6.754;2022-10-31T15:15:35;19.92;;;5.57;;
28003;SDS011;15330;51.234;6.754;2022-10-31T15:18:03;19.27;;;5.32;;
28003;SDS011;15330;51.234;6.754;2022-10-31T15:20:30;19.52;;;5.68;;
28003;SDS011;15330;51.234;6.754;2022-10-31T15:23:01;17.90;;;7.10;;
28003;SDS011;15330;51.234;6.754;2022-10-31T15:25:32;11.25;;;5.25;;
28003;SDS011;15330;51.234;6.754;2022-10-31T15:27:59;18.93;;;5.03;;
28003;SDS011;15330;51.234;6.754;2022-10-31T15:30:26;18.98;;;5.47;;
28003;SDS011;15330;51.234;6.754;2022-10-31T15:32:53;14.48;;;4.85;;
28003;SDS011;15330;51.234;6.754;2022-10-31T15:35:23;16.98;;;5.32;;
28003;SDS011;15330;51.234;6.754;2022-10-31T15:37:51;13.15;;;4.95;;
28003;SDS011;15330;51.234;6.754;2022-10-31T15:40:18;11.35;;;4.47;;
28003;SDS011;15330;51.234;6.754;2022-10-31T15:42:47;13.27;;;5.05;;
28003;SDS011;15330;51.234;6.754;2022-10-31T15:45:17;19.33;;;5.40;;
28003;SDS011;15330;51.234;6.754;2022-10-31T15:47:56;13.73;;;4.57;;
28003;SDS011;15330;51.234;6.754;2022-10-31T15:50:31;19.98;;;5.55;;
28003;SDS011;15330;51.234;6.754;2022-10-31T15:53:00;19.60;;;6.10;;
28003;SDS011;15330;51.234;6.754;2022-10-31T15:55:27;12.80;;;4.88;;
28003;SDS011;15330;51.234;6.754;2022-10-31T15:57:58;14.82;;;5.72;;
28003;SDS011;15330;51.234;6.754;2022-10-31T16:00:30;13.80;;;4.65;;
28003;SDS011;15330;51.234;6.754;2022-10-31T16:03:40;11.30;;;4.68;;
28003;SDS011;15330;51.234;6.754;2022-10-31T16:05:52;12.85;;;4.68;;
28003;SDS011;15330;51.234;6.754;2022-10-31T16:08:30;15.27;;;4.90;;
28003;SDS011;15330;51.234;6.754;2022-10-31T16:13:38;11.00;;;4.95;;
28003;SDS011;15330;51.234;6.754;2022-10-31T16:16:14;17.90;;;4.95;;
28003;SDS011;15330;51.234;6.754;2022-10-31T16:18:41;16.20;;;4.60;;
28003;SDS011;15330;51.234;6.754;2022-10-31T16:21:07;14.43;;;5.32;;
28003;SDS011;15330;51.234;6.754;2022-10-31T16:23:34;15.30;;;5.05;;
28003;SDS011;15330;51.234;6.754;2022-10-31T16:26:06;16.52;;;5.43;;
28003;SDS011;15330;51.234;6.754;2022-10-31T16:28:33;13.07;;;5.18;;
28003;SDS011;15330;51.234;6.754;2022-10-31T16:30:59;16.20;;;5.25;;
28003;SDS011;15330;51.234;6.754;2022-10-31T16:33:31;10.95;;;4.40;;
28003;SDS011;15330;51.234;6.754;2022-10-31T16:39:04;20.67;;;5.50;;
28003;SDS011;15330;51.234;6.754;2022-10-31T16:41:30;11.93;;;4.47;;
28003;SDS011;15330;51.234;6.754;2022-10-31T16:43:59;24.15;;;5.75;;
28003;SDS011;15330;51.234;6.754;2022-10-31T16:46:26;16.13;;;5.28;;
28003;SDS011;15330;51.234;6.754;2022-10-31T16:48:53;14.88;;;4.30;;
28003;SDS011;15330;51.234;6.754;2022-10-31T16:51:19;24.02;;;8.75;;
28003;SDS011;15330;51.234;6.754;2022-10-31T16:53:45;12.05;;;5.25;;
28003;SDS011;15330;51.234;6.754;2022-10-31T16:56:17;14.05;;;4.63;;
28003;SDS011;15330;51.234;6.754;2022-10-31T16:58:47;17.80;;;4.65;;
28003;SDS011;15330;51.234;6.754;2022-10-31T17:01:13;16.80;;;4.65;;
28003;SDS011;15330;51.234;6.754;2022-10-31T17:03:39;18.85;;;4.78;;
28003;SDS011;15330;51.234;6.754;2022-10-31T17:06:04;11.55;;;4.00;;
28003;SDS011;15330;51.234;6.754;2022-10-31T17:08:30;15.18;;;4.47;;
28003;SDS011;15330;51.234;6.754;2022-10-31T17:10:56;12.10;;;4.38;;
28003;SDS011;15330;51.234;6.754;2022-10-31T17:13:23;11.05;;;5.22;;